createdAt,value
2022-09-23T00:01:07.820Z,10.23
2022-09-23T00:03:37.252Z,8.13
2022-09-23T00:06:13.309Z,8.15
2022-09-23T00:08:41.040Z,7.90
2022-09-23T00:11:14.091Z,8.57
2022-09-23T00:13:42.889Z,8.52
2022-09-23T00:16:12.993Z,8.27
2022-09-23T00:18:40.765Z,7.20
2022-09-23T00:21:10.905Z,7.70
2022-09-23T00:23:38.723Z,7.97
2022-09-23T00:26:07.807Z,8.13
2022-09-23T00:28:35.141Z,8.23
2022-09-23T00:31:14.035Z,7.53
2022-09-23T00:33:41.034Z,9.15
2022-09-23T00:36:11.771Z,10.25
2022-09-23T00:38:39.074Z,11.73
2022-09-23T00:41:06.484Z,10.77
2022-09-23T00:43:47.726Z,12.82
2022-09-23T00:46:37.171Z,12.88
2022-09-23T00:49:18.510Z,13.10
2022-09-23T00:51:54.148Z,9.52
2022-09-23T00:54:23.947Z,8.10
2022-09-23T00:56:50.901Z,7.95
2022-09-23T00:59:17.629Z,9.13
2022-09-23T01:01:44.675Z,9.45
2022-09-23T01:04:11.560Z,8.15
2022-09-23T01:06:38.220Z,7.88
2022-09-23T01:09:04.976Z,6.90
2022-09-23T01:11:38.072Z,6.97
2022-09-23T01:14:17.083Z,6.88
2022-09-23T01:17:24.277Z,6.93
2022-09-23T01:19:50.825Z,6.60
2022-09-23T01:22:32.479Z,8.70
2022-09-23T01:25:16.534Z,8.23
2022-09-23T01:28:11.351Z,7.80
2022-09-23T01:30:44.300Z,7.53
2022-09-23T01:33:39.556Z,7.93
2022-09-23T01:36:22.679Z,8.60
2022-09-23T01:38:59.193Z,8.75
2022-09-23T01:41:34.550Z,8.38
2022-09-23T01:44:11.303Z,8.00
2022-09-23T01:46:51.687Z,7.70
2022-09-23T01:49:21.394Z,7.35
2022-09-23T01:52:23.244Z,7.20
2022-09-23T01:55:13.084Z,9.15
2022-09-23T01:58:14.903Z,8.45
2022-09-23T02:00:54.775Z,8.05
2022-09-23T02:03:28.122Z,9.13
2022-09-23T02:06:10.652Z,9.15
2022-09-23T02:08:58.278Z,8.43
2022-09-23T02:11:25.015Z,7.53
2022-09-23T02:14:19.586Z,8.30
2022-09-23T02:16:50.098Z,7.55
2022-09-23T02:19:24.652Z,8.18
2022-09-23T02:22:08.393Z,8.38
2022-09-23T02:24:38.294Z,7.60
2022-09-23T02:27:19.765Z,7.90
2022-09-23T02:29:53.978Z,9.60
2022-09-23T02:32:20.509Z,8.55
2022-09-23T02:35:03.316Z,9.98
2022-09-23T02:37:33.466Z,9.77
2022-09-23T02:40:23.574Z,10.52
2022-09-23T02:43:05.608Z,11.55
2022-09-23T02:45:33.829Z,9.32
2022-09-23T02:48:19.439Z,8.45
2022-09-23T02:50:47.780Z,8.73
2022-09-23T02:53:16.186Z,8.18
2022-09-23T02:55:43.209Z,8.85
2022-09-23T02:58:13.409Z,8.32
2022-09-23T03:00:46.060Z,8.13
2022-09-23T03:03:39.065Z,8.50
2022-09-23T03:06:47.684Z,8.20
2022-09-23T03:09:24.698Z,7.85
2022-09-23T03:12:02.606Z,7.18
2022-09-23T03:14:40.880Z,7.43
2022-09-23T03:17:19.984Z,8.30
2022-09-23T03:19:54.002Z,8.07
2022-09-23T03:22:44.059Z,7.43
2022-09-23T03:27:42.498Z,7.20
2022-09-23T03:30:10.678Z,7.22
2022-09-23T03:32:38.432Z,8.77
2022-09-23T03:35:06.075Z,7.57
2022-09-23T03:37:39.400Z,8.40
2022-09-23T03:40:19.836Z,8.52
2022-09-23T03:42:50.204Z,8.23
2022-09-23T03:45:25.903Z,8.88
2022-09-23T03:47:52.518Z,11.32
2022-09-23T03:50:20.884Z,10.15
2022-09-23T03:52:50.466Z,11.10
2022-09-23T03:55:19.239Z,12.05
2022-09-23T03:57:46.392Z,11.90
2022-09-23T04:00:14.784Z,11.38
2022-09-23T04:02:42.032Z,12.02
2022-09-23T04:05:09.575Z,11.98
2022-09-23T04:07:36.612Z,11.60
2022-09-23T04:10:05.022Z,11.20
2022-09-23T04:12:31.708Z,13.90
2022-09-23T04:14:58.428Z,13.32
2022-09-23T04:17:25.256Z,13.45
2022-09-23T04:19:51.875Z,13.27
2022-09-23T04:22:18.508Z,13.88
2022-09-23T04:24:45.113Z,15.82
2022-09-23T04:27:11.730Z,10.13
2022-09-23T04:29:38.388Z,10.07
2022-09-23T04:32:05.143Z,9.38
2022-09-23T04:34:31.746Z,11.00
2022-09-23T04:36:58.401Z,12.27
2022-09-23T04:39:25.001Z,12.52
2022-09-23T04:41:51.644Z,11.40
2022-09-23T04:44:18.880Z,12.00
2022-09-23T04:46:49.373Z,10.32
2022-09-23T04:49:16.406Z,11.57
2022-09-23T04:51:43.721Z,11.05
2022-09-23T04:54:12.769Z,12.00
2022-09-23T04:56:42.462Z,10.70
2022-09-23T04:59:09.404Z,12.35
2022-09-23T05:01:36.755Z,11.30
2022-09-23T05:04:10.186Z,12.10
2022-09-23T05:06:37.477Z,10.70
2022-09-23T05:09:07.090Z,10.15
2022-09-23T05:11:34.615Z,9.63
2022-09-23T05:14:01.585Z,11.43
2022-09-23T05:16:28.344Z,10.07
2022-09-23T05:18:54.978Z,9.90
2022-09-23T05:21:23.880Z,10.55
2022-09-23T05:23:56.599Z,11.07
2022-09-23T05:26:28.119Z,11.35
2022-09-23T05:28:55.393Z,11.68
2022-09-23T05:31:24.700Z,14.45
2022-09-23T05:33:53.738Z,13.43
2022-09-23T05:36:22.064Z,13.73
2022-09-23T05:38:50.146Z,13.70
2022-09-23T05:41:17.871Z,14.45
2022-09-23T05:43:45.149Z,15.15
2022-09-23T05:46:14.517Z,16.13
2022-09-23T05:48:42.301Z,16.38
2022-09-23T05:51:13.059Z,18.13
2022-09-23T05:53:44.935Z,18.15
2022-09-23T05:56:17.262Z,18.02
2022-09-23T05:58:44.641Z,18.27
2022-09-23T06:01:15.244Z,16.90
2022-09-23T06:03:41.904Z,18.30
2022-09-23T06:06:14.790Z,16.60
2022-09-23T06:08:42.439Z,16.13
2022-09-23T06:11:10.244Z,15.68
2022-09-23T06:13:38.366Z,15.95
2022-09-23T06:16:10.293Z,15.27
2022-09-23T06:18:42.209Z,15.63
2022-09-23T06:21:11.757Z,14.75
2022-09-23T06:23:41.082Z,14.00
2022-09-23T06:26:10.354Z,14.38
2022-09-23T06:28:38.849Z,12.93
2022-09-23T06:31:12.853Z,12.52
2022-09-23T06:33:39.966Z,11.63
2022-09-23T06:36:07.851Z,11.32
2022-09-23T06:38:35.525Z,12.25
2022-09-23T06:41:03.284Z,11.35
2022-09-23T06:43:30.666Z,10.90
2022-09-23T06:46:00.987Z,14.10
2022-09-23T06:48:28.743Z,10.32
2022-09-23T06:50:59.714Z,9.25
2022-09-23T06:53:26.490Z,10.15
2022-09-23T06:56:02.515Z,9.95
2022-09-23T06:58:31.729Z,10.52
2022-09-23T07:01:02.939Z,10.73
2022-09-23T07:03:29.863Z,10.80
2022-09-23T07:05:56.723Z,10.80
2022-09-23T07:08:24.926Z,12.70
2022-09-23T07:10:53.091Z,10.88
2022-09-23T07:13:19.839Z,10.48
2022-09-23T07:15:54.523Z,10.77
2022-09-23T07:18:25.707Z,10.77
2022-09-23T07:20:53.428Z,9.98
2022-09-23T07:23:20.945Z,10.27
2022-09-23T07:25:50.413Z,10.32
2022-09-23T07:28:17.892Z,10.25
2022-09-23T07:30:56.036Z,10.35
2022-09-23T07:33:32.128Z,9.52
2022-09-23T07:35:59.163Z,10.43
2022-09-23T07:38:30.081Z,10.40
2022-09-23T07:41:11.410Z,10.85
2022-09-23T07:43:39.772Z,9.38
2022-09-23T07:46:10.384Z,9.60
2022-09-23T07:48:38.150Z,8.90
2022-09-23T07:51:12.969Z,9.93
2022-09-23T07:53:40.246Z,9.43
2022-09-23T07:56:07.434Z,9.77
2022-09-23T07:58:35.155Z,9.50
2022-09-23T08:01:04.280Z,9.50
2022-09-23T08:03:31.128Z,9.02
2022-09-23T08:06:13.823Z,8.75
2022-09-23T08:08:43.770Z,10.02
2022-09-23T08:11:13.392Z,8.55
2022-09-23T08:13:41.173Z,8.63
2022-09-23T08:16:08.347Z,8.88
2022-09-23T08:18:35.408Z,10.38
2022-09-23T08:21:02.318Z,8.52
2022-09-23T08:23:33.540Z,8.95
2022-09-23T08:26:03.011Z,9.05
2022-09-23T08:28:30.333Z,9.00
2022-09-23T08:30:57.087Z,9.25
2022-09-23T08:33:24.687Z,9.02
2022-09-23T08:35:52.503Z,9.45
2022-09-23T08:38:20.393Z,9.23
2022-09-23T08:40:49.609Z,9.40
2022-09-23T08:43:26.489Z,9.25
2022-09-23T08:45:55.514Z,8.00
2022-09-23T08:48:36.819Z,9.10
2022-09-23T08:51:12.491Z,8.88
2022-09-23T08:53:39.955Z,9.40
2022-09-23T08:56:19.386Z,8.40
2022-09-23T08:59:14.865Z,8.95
2022-09-23T09:01:46.209Z,7.80
2022-09-23T09:04:23.131Z,8.13
2022-09-23T09:07:24.662Z,8.02
2022-09-23T09:09:50.726Z,8.60
2022-09-23T09:12:40.920Z,9.18
2022-09-23T09:15:15.371Z,8.15
2022-09-23T09:18:01.239Z,8.50
2022-09-23T09:20:59.407Z,8.05
2022-09-23T09:23:40.124Z,7.65
2022-09-23T09:26:15.613Z,7.50
2022-09-23T09:28:48.893Z,6.97
2022-09-23T09:31:24.689Z,7.20
2022-09-23T09:34:20.293Z,6.60
2022-09-23T09:37:06.173Z,7.35
2022-09-23T09:39:35.247Z,6.47
2022-09-23T09:42:03.428Z,7.25
2022-09-23T09:44:46.787Z,7.88
2022-09-23T09:47:28.746Z,7.47
2022-09-23T09:50:11.884Z,7.80
2022-09-23T09:52:38.473Z,7.43
2022-09-23T09:55:14.423Z,6.93
2022-09-23T09:57:52.127Z,7.38
2022-09-23T10:00:26.362Z,7.32
2022-09-23T10:02:53.801Z,6.53
2022-09-23T10:05:49.705Z,6.13
2022-09-23T10:08:24.737Z,5.47
2022-09-23T10:11:13.045Z,5.18
2022-09-23T10:13:39.648Z,4.85
2022-09-23T10:16:07.414Z,5.47
2022-09-23T10:18:37.508Z,5.88
2022-09-23T10:21:09.061Z,5.05
2022-09-23T10:24:01.593Z,5.85
2022-09-23T10:26:34.452Z,6.20
2022-09-23T10:29:23.130Z,5.78
2022-09-23T10:31:53.217Z,5.68
2022-09-23T10:34:27.705Z,4.57
2022-09-23T10:37:01.799Z,5.13
2022-09-23T10:39:52.032Z,4.55
2022-09-23T10:43:02.273Z,5.40
2022-09-23T10:45:56.094Z,5.90
2022-09-23T10:48:40.781Z,5.85
2022-09-23T10:51:14.447Z,5.78
2022-09-23T10:53:59.687Z,5.35
2022-09-23T10:56:36.240Z,4.93
2022-09-23T10:59:41.173Z,4.22
2022-09-23T11:02:25.464Z,3.97
2022-09-23T11:05:18.683Z,4.30
2022-09-23T11:07:48.332Z,3.65
2022-09-23T11:10:45.517Z,3.67
2022-09-23T11:13:30.988Z,3.70
2022-09-23T11:16:24.732Z,4.57
2022-09-23T11:19:21.902Z,4.50
2022-09-23T11:22:08.308Z,3.70
2022-09-23T11:24:58.085Z,4.82
2022-09-23T11:28:01.518Z,5.43
2022-09-23T11:30:59.843Z,6.05
2022-09-23T11:33:44.834Z,5.20
2022-09-23T11:36:26.402Z,4.68
2022-09-23T11:38:56.855Z,4.43
2022-09-23T11:41:29.285Z,4.63
2022-09-23T11:44:41.198Z,3.80
2022-09-23T11:47:16.613Z,3.70
2022-09-23T11:50:17.777Z,3.53
2022-09-23T11:52:51.967Z,3.75
2022-09-23T11:55:24.422Z,4.20
2022-09-23T11:57:54.668Z,3.58
2022-09-23T12:00:23.915Z,3.47
2022-09-23T12:03:05.748Z,3.70
2022-09-23T12:05:41.773Z,3.70
2022-09-23T12:08:29.347Z,3.67
2022-09-23T12:11:06.581Z,3.50
2022-09-23T12:13:41.836Z,3.05
2022-09-23T12:16:49.071Z,2.90
2022-09-23T12:19:42.904Z,3.10
2022-09-23T12:22:26.524Z,3.05
2022-09-23T12:25:18.336Z,3.28
2022-09-23T12:27:53.086Z,3.50
2022-09-23T12:30:23.492Z,3.20
2022-09-23T12:32:50.594Z,3.30
2022-09-23T12:35:32.109Z,3.33
2022-09-23T12:38:01.187Z,3.00
2022-09-23T12:40:44.752Z,3.35
2022-09-23T12:43:33.061Z,3.15
2022-09-23T12:46:18.082Z,3.35
2022-09-23T12:49:00.593Z,2.85
2022-09-23T12:51:32.841Z,2.75
2022-09-23T12:54:05.363Z,2.67
2022-09-23T12:56:37.944Z,3.00
2022-09-23T12:59:25.919Z,2.55
2022-09-23T13:01:53.540Z,2.63
2022-09-23T13:05:14.632Z,2.70
2022-09-23T13:07:47.192Z,3.33
2022-09-23T13:10:32.844Z,3.28
2022-09-23T13:13:02.676Z,3.20
2022-09-23T13:18:20.254Z,3.60
2022-09-23T13:20:52.055Z,3.58
2022-09-23T13:23:34.296Z,4.00
2022-09-23T13:26:09.828Z,3.60
2022-09-23T13:28:54.050Z,4.07
2022-09-23T13:31:21.379Z,3.10
2022-09-23T13:33:59.669Z,3.35
2022-09-23T13:36:27.048Z,3.15
2022-09-23T13:38:53.714Z,3.33
2022-09-23T13:41:28.570Z,3.28
2022-09-23T13:44:00.568Z,3.25
2022-09-23T13:46:40.842Z,3.03
2022-09-23T13:49:26.785Z,3.10
2022-09-23T13:51:55.190Z,2.95
2022-09-23T13:54:35.481Z,2.90
2022-09-23T13:57:03.058Z,3.10
2022-09-23T13:59:36.784Z,2.95
2022-09-23T14:02:20.077Z,2.85
2022-09-23T14:04:47.316Z,3.00
2022-09-23T14:07:16.855Z,3.30
2022-09-23T14:09:48.314Z,2.60
2022-09-23T14:12:21.943Z,3.10
2022-09-23T14:14:51.227Z,2.97
2022-09-23T14:17:23.399Z,2.80
2022-09-23T14:19:51.060Z,2.90
2022-09-23T14:22:25.130Z,2.80
2022-09-23T14:24:52.459Z,2.78
2022-09-23T14:27:30.015Z,3.00
2022-09-23T14:29:58.015Z,2.85
2022-09-23T14:32:28.260Z,2.95
2022-09-23T14:35:01.012Z,2.78
2022-09-23T14:37:55.356Z,3.08
2022-09-23T14:40:22.223Z,2.47
2022-09-23T14:43:15.780Z,2.80
2022-09-23T14:45:50.549Z,3.28
2022-09-23T14:48:23.047Z,3.15
2022-09-23T14:51:07.472Z,3.10
2022-09-23T14:53:35.505Z,3.28
2022-09-23T14:56:12.024Z,2.70
2022-09-23T14:58:54.972Z,2.88
2022-09-23T15:01:30.916Z,2.95
2022-09-23T15:04:10.052Z,3.10
2022-09-23T15:06:39.609Z,3.10
2022-09-23T15:09:07.404Z,2.92
2022-09-23T15:11:36.089Z,2.85
2022-09-23T15:14:33.114Z,3.25
2022-09-23T15:16:51.507Z,2.92
2022-09-23T15:19:21.050Z,2.83
2022-09-23T15:21:53.219Z,2.90
2022-09-23T15:24:35.985Z,3.15
2022-09-23T15:27:09.768Z,2.80
2022-09-23T15:29:36.885Z,2.90
2022-09-23T15:32:03.583Z,2.70
2022-09-23T15:34:31.785Z,2.80
2022-09-23T15:36:58.470Z,2.88
2022-09-23T15:39:35.547Z,3.00
2022-09-23T15:42:02.773Z,3.03
2022-09-23T15:44:30.330Z,3.70
2022-09-23T15:47:01.126Z,4.00
2022-09-23T15:49:31.737Z,3.60
2022-09-23T15:52:04.216Z,3.60
2022-09-23T15:54:32.502Z,3.40
2022-09-23T15:57:01.181Z,3.28
2022-09-23T15:59:28.776Z,3.53
2022-09-23T16:01:56.927Z,3.83
2022-09-23T16:04:23.757Z,4.30
2022-09-23T16:06:50.550Z,5.38
2022-09-23T16:09:17.324Z,5.60
2022-09-23T16:11:47.092Z,5.88
2022-09-23T16:14:15.814Z,4.13
2022-09-23T16:16:47.846Z,5.28
2022-09-23T16:19:16.212Z,4.45
2022-09-23T16:21:44.011Z,3.97
2022-09-23T16:24:18.755Z,4.38
2022-09-23T16:26:48.122Z,4.15
2022-09-23T16:29:15.207Z,4.40
2022-09-23T16:31:41.892Z,3.58
2022-09-23T16:34:08.595Z,3.88
2022-09-23T16:36:41.055Z,3.90
2022-09-23T16:39:10.995Z,4.10
2022-09-23T16:41:37.686Z,4.60
2022-09-23T16:44:07.417Z,4.80
2022-09-23T16:46:34.940Z,4.78
2022-09-23T16:49:01.625Z,5.15
2022-09-23T16:51:31.083Z,5.30
2022-09-23T16:53:59.376Z,5.82
2022-09-23T16:56:29.236Z,6.60
2022-09-23T16:58:56.847Z,6.47
2022-09-23T17:01:45.167Z,6.60
2022-09-23T17:04:13.256Z,7.32
2022-09-23T17:06:53.071Z,7.07
2022-09-23T17:09:21.997Z,7.50
2022-09-23T17:11:56.360Z,8.18
2022-09-23T17:14:23.100Z,8.38
2022-09-23T17:16:49.756Z,8.95
2022-09-23T17:19:16.384Z,9.98
2022-09-23T17:21:43.212Z,9.55
2022-09-23T17:24:10.306Z,11.15
2022-09-23T17:26:38.307Z,10.18
2022-09-23T17:29:05.003Z,9.85
2022-09-23T17:31:31.742Z,9.10
2022-09-23T17:33:58.395Z,11.30
2022-09-23T17:36:25.028Z,12.45
2022-09-23T17:38:54.591Z,13.25
2022-09-23T17:41:21.803Z,12.65
2022-09-23T17:43:54.430Z,13.98
2022-09-23T17:46:21.154Z,12.90
2022-09-23T17:48:47.805Z,12.63
2022-09-23T17:51:21.628Z,12.90
2022-09-23T17:53:49.580Z,16.90
2022-09-23T17:56:19.250Z,16.48
2022-09-23T17:58:47.808Z,16.48
2022-09-23T18:01:19.780Z,13.82
2022-09-23T18:03:47.450Z,11.65
2022-09-23T18:06:15.315Z,12.50
2022-09-23T18:08:43.941Z,11.95
2022-09-23T18:11:20.299Z,11.30
2022-09-23T18:13:52.218Z,11.68
2022-09-23T18:16:20.741Z,12.45
2022-09-23T18:18:52.682Z,21.77
2022-09-23T18:21:20.430Z,21.35
2022-09-23T18:23:47.567Z,18.08
2022-09-23T18:26:19.054Z,16.35
2022-09-23T18:28:45.827Z,15.40
2022-09-23T18:31:12.540Z,15.30
2022-09-23T18:33:39.265Z,16.63
2022-09-23T18:36:07.560Z,14.60
2022-09-23T18:38:34.757Z,16.98
2022-09-23T18:41:01.808Z,20.77
2022-09-23T18:43:40.550Z,23.45
2022-09-23T18:46:17.142Z,26.10
2022-09-23T18:49:02.803Z,25.42
2022-09-23T18:51:36.502Z,23.52
2022-09-23T18:54:05.950Z,27.70
2022-09-23T18:56:39.638Z,31.35
2022-09-23T18:59:07.281Z,30.10
2022-09-23T19:01:34.691Z,34.53
2022-09-23T19:04:04.739Z,36.35
2022-09-23T19:08:59.371Z,46.53
2022-09-23T19:11:26.778Z,51.03
2022-09-23T19:13:59.239Z,55.10
2022-09-23T19:16:26.510Z,54.63
2022-09-23T19:18:53.596Z,52.85
2022-09-23T19:21:23.544Z,40.42
2022-09-23T19:26:23.653Z,44.97
2022-09-23T19:28:57.791Z,32.13
2022-09-23T19:31:33.522Z,17.75
2022-09-23T19:34:02.592Z,25.35
2022-09-23T19:36:34.176Z,30.48
2022-09-23T19:39:06.584Z,31.67
2022-09-23T19:41:35.339Z,27.75
2022-09-23T19:44:03.285Z,23.70
2022-09-23T19:46:31.179Z,24.40
2022-09-23T19:48:58.618Z,36.70
2022-09-23T19:51:25.386Z,42.97
2022-09-23T19:53:53.376Z,42.70
2022-09-23T19:56:20.238Z,42.40
2022-09-23T19:58:49.880Z,43.30
2022-09-23T20:01:17.168Z,38.92
2022-09-23T20:03:45.043Z,41.63
2022-09-23T20:06:12.038Z,39.65
2022-09-23T20:08:39.289Z,41.05
2022-09-23T20:11:22.658Z,37.90
2022-09-23T20:14:04.981Z,36.53
2022-09-23T20:16:37.080Z,37.45
2022-09-23T20:19:04.896Z,38.70
2022-09-23T20:21:33.646Z,38.63
2022-09-23T20:24:00.975Z,38.75
2022-09-23T20:26:47.920Z,39.78
2022-09-23T20:29:14.664Z,39.38
2022-09-23T20:31:41.478Z,38.03
2022-09-23T20:34:10.306Z,37.92
2022-09-23T20:36:39.823Z,34.55
2022-09-23T20:39:07.288Z,35.75
2022-09-23T20:41:37.605Z,33.47
2022-09-23T20:44:07.497Z,31.83
2022-09-23T20:46:34.795Z,31.95
2022-09-23T20:49:02.105Z,30.25
2022-09-23T20:51:28.925Z,31.10
2022-09-23T20:53:55.680Z,34.58
2022-09-23T20:56:23.694Z,33.38
2022-09-23T20:58:52.867Z,31.38
2022-09-23T21:01:20.622Z,31.45
2022-09-23T21:03:50.050Z,29.60
2022-09-23T21:06:19.113Z,28.52
2022-09-23T21:08:46.724Z,25.87
2022-09-23T21:11:16.306Z,26.45
2022-09-23T21:13:47.824Z,27.27
2022-09-23T21:16:17.131Z,23.88
2022-09-23T21:18:44.953Z,22.88
2022-09-23T21:21:14.513Z,25.15
2022-09-23T21:23:43.438Z,27.77
2022-09-23T21:26:11.461Z,27.98
2022-09-23T21:28:43.367Z,28.85
2022-09-23T21:31:25.917Z,27.48
2022-09-23T21:34:01.985Z,28.27
2022-09-23T21:36:32.881Z,30.08
2022-09-23T21:39:01.963Z,34.72
2022-09-23T21:41:29.197Z,34.33
2022-09-23T21:43:56.510Z,31.75
2022-09-23T21:46:28.321Z,33.28
2022-09-23T21:48:57.565Z,34.63
2022-09-23T21:51:30.139Z,33.35
2022-09-23T21:53:58.423Z,34.15
2022-09-23T21:56:30.212Z,36.25
2022-09-23T21:58:58.736Z,38.30
2022-09-23T22:01:33.309Z,34.85
2022-09-23T22:04:10.529Z,37.00
2022-09-23T22:06:40.717Z,35.58
2022-09-23T22:11:55.741Z,35.85
2022-09-23T22:14:26.133Z,39.50
2022-09-23T22:16:59.689Z,44.30
2022-09-23T22:19:46.713Z,40.65
2022-09-23T22:22:16.499Z,43.22
2022-09-23T22:24:44.704Z,37.20
2022-09-23T22:27:14.321Z,37.58
2022-09-23T22:29:59.484Z,38.03
2022-09-23T22:32:35.124Z,36.28
2022-09-23T22:35:02.701Z,36.30
2022-09-23T22:37:34.685Z,33.22
2022-09-23T22:40:05.578Z,36.33
2022-09-23T22:42:32.823Z,39.00
2022-09-23T22:44:59.545Z,44.40
2022-09-23T22:47:27.125Z,43.65
2022-09-23T22:49:55.454Z,47.08
2022-09-23T22:52:24.602Z,45.90
2022-09-23T22:54:52.432Z,42.70
2022-09-23T22:57:19.606Z,43.90
2022-09-23T22:59:48.246Z,41.38
2022-09-23T23:02:18.179Z,41.15
2022-09-23T23:04:47.181Z,41.60
2022-09-23T23:07:15.408Z,43.67
2022-09-23T23:09:42.176Z,42.25
2022-09-23T23:12:08.899Z,39.63
2022-09-23T23:14:36.122Z,41.10
2022-09-23T23:17:07.176Z,41.92
2022-09-23T23:19:35.312Z,41.92
2022-09-23T23:22:02.115Z,43.97
2022-09-23T23:24:29.002Z,40.78
2022-09-23T23:26:55.644Z,39.28
2022-09-23T23:29:23.267Z,40.13
2022-09-23T23:31:50.348Z,41.90
2022-09-23T23:34:19.788Z,38.60
2022-09-23T23:36:47.957Z,40.85
2022-09-23T23:39:14.924Z,40.97
2022-09-23T23:41:41.725Z,42.80
2022-09-23T23:44:08.750Z,40.70
2022-09-23T23:46:37.337Z,39.63
2022-09-23T23:49:04.517Z,38.60
2022-09-23T23:51:31.256Z,39.28
2022-09-23T23:53:59.651Z,38.17
2022-09-23T23:56:27.187Z,42.00
2022-09-23T23:58:55.591Z,45.80
